createdAt,value
2019-05-20T00:02:26.010Z,95558.48
2019-05-20T00:04:49.197Z,95552.75
2019-05-20T00:07:21.637Z,95543.33
2019-05-20T00:09:53.137Z,95539.76
2019-05-20T00:12:24.581Z,95545.62
2019-05-20T00:14:55.984Z,95546.66
2019-05-20T00:17:27.630Z,95540.11
2019-05-20T00:19:59.114Z,95540.74
2019-05-20T00:22:30.602Z,95548.94
2019-05-20T00:25:02.177Z,95551.63
2019-05-20T00:27:34.149Z,95551.13
2019-05-20T00:30:06.476Z,95552.20
2019-05-20T00:32:41.615Z,95545.62
2019-05-20T00:35:11.656Z,95545.53
2019-05-20T00:37:43.266Z,95541.05
2019-05-20T00:40:15.342Z,95541.50
2019-05-20T00:42:46.749Z,95538.80
2019-05-20T00:45:18.533Z,95538.14
2019-05-20T00:47:49.970Z,95531.48
2019-05-20T00:50:21.761Z,95531.54
2019-05-20T00:52:53.243Z,95527.84
2019-05-20T00:55:30.890Z,95528.19
2019-05-20T00:58:02.450Z,95523.50
2019-05-20T01:00:34.035Z,95518.45
2019-05-20T01:03:05.528Z,95513.52
2019-05-20T01:05:37.013Z,95503.19
2019-05-20T01:08:08.402Z,95502.11
2019-05-20T01:10:40.171Z,95499.48
2019-05-20T01:13:11.637Z,95497.42
2019-05-20T01:15:43.122Z,95499.03
2019-05-20T01:18:14.584Z,95494.38
2019-05-20T01:20:46.465Z,95492.63
2019-05-20T01:23:17.913Z,95490.27
2019-05-20T01:25:49.471Z,95492.97
2019-05-20T01:28:20.792Z,95483.70
2019-05-20T01:30:52.304Z,95486.91
2019-05-20T01:33:23.873Z,95483.63
2019-05-20T01:35:55.230Z,95486.61
2019-05-20T01:38:26.785Z,95482.97
2019-05-20T01:40:58.235Z,95487.42
2019-05-20T01:43:29.969Z,95484.89
2019-05-20T01:46:01.460Z,95483.13
2019-05-20T01:48:33.166Z,95487.16
2019-05-20T01:51:04.679Z,95485.85
2019-05-20T01:53:37.150Z,95482.97
2019-05-20T01:56:08.944Z,95489.81
2019-05-20T01:58:40.562Z,95491.59
2019-05-20T02:01:12.453Z,95485.09
2019-05-20T02:03:43.961Z,95489.62
2019-05-20T02:06:15.537Z,95485.44
2019-05-20T02:08:47.007Z,95488.77
2019-05-20T02:11:18.529Z,95488.34
2019-05-20T02:13:57.072Z,95489.00
2019-05-20T02:16:28.799Z,95493.53
2019-05-20T02:19:00.291Z,95495.00
2019-05-20T02:21:31.803Z,95499.50
2019-05-20T02:24:03.212Z,95491.39
2019-05-20T02:26:35.247Z,95492.16
2019-05-20T02:29:06.729Z,95491.80
2019-05-20T02:31:38.145Z,95491.72
2019-05-20T02:34:09.576Z,95494.55
2019-05-20T02:36:40.938Z,95498.20
2019-05-20T02:39:12.401Z,95504.48
2019-05-20T02:41:43.972Z,95497.02
2019-05-20T02:44:15.479Z,95499.38
2019-05-20T02:46:47.266Z,95506.84
2019-05-20T02:49:19.640Z,95503.47
2019-05-20T02:51:51.290Z,95501.08
2019-05-20T02:54:22.791Z,95500.67
2019-05-20T02:59:35.068Z,95497.73
2019-05-20T03:02:07.960Z,95494.58
2019-05-20T03:04:39.565Z,95497.45
2019-05-20T03:07:11.119Z,95498.66
2019-05-20T03:09:42.551Z,95495.87
2019-05-20T03:12:14.062Z,95494.13
2019-05-20T03:14:45.575Z,95493.84
2019-05-20T03:17:17.226Z,95492.39
2019-05-20T03:19:48.769Z,95490.36
2019-05-20T03:22:20.286Z,95492.19
2019-05-20T03:24:52.798Z,95499.95
2019-05-20T03:27:24.333Z,95497.69
2019-05-20T03:29:56.024Z,95492.28
2019-05-20T03:32:27.502Z,95497.47
2019-05-20T03:35:00.887Z,95495.34
2019-05-20T03:37:32.264Z,95501.47
2019-05-20T03:40:04.071Z,95495.64
2019-05-20T03:42:35.570Z,95499.59
2019-05-20T03:45:08.480Z,95503.61
2019-05-20T03:47:39.989Z,95499.09
2019-05-20T03:50:12.235Z,95505.56
2019-05-20T03:52:43.743Z,95499.03
2019-05-20T03:55:15.744Z,95496.64
2019-05-20T03:57:47.291Z,95504.96
2019-05-20T04:00:23.808Z,95499.23
2019-05-20T04:02:55.638Z,95495.89
2019-05-20T04:05:27.502Z,95499.67
2019-05-20T04:07:59.376Z,95498.44
2019-05-20T04:10:30.974Z,95494.66
2019-05-20T04:13:02.514Z,95501.18
2019-05-20T04:15:34.000Z,95497.36
2019-05-20T04:18:06.236Z,95502.41
2019-05-20T04:20:38.845Z,95496.41
2019-05-20T04:23:10.710Z,95483.44
2019-05-20T04:25:42.224Z,95487.83
2019-05-20T04:28:14.321Z,95478.03
2019-05-20T04:30:46.304Z,95477.09
2019-05-20T04:33:17.896Z,95474.28
2019-05-20T04:35:50.065Z,95472.40
2019-05-20T04:38:21.799Z,95469.72
2019-05-20T04:40:53.394Z,95458.55
2019-05-20T04:43:24.941Z,95459.63
2019-05-20T04:45:57.805Z,95456.50
2019-05-20T04:48:29.493Z,95457.09
2019-05-20T04:51:01.162Z,95454.41
2019-05-20T04:53:32.805Z,95455.95
2019-05-20T04:56:04.230Z,95460.89
2019-05-20T04:58:35.799Z,95452.63
2019-05-20T05:01:07.329Z,95450.52
2019-05-20T05:03:38.823Z,95448.02
2019-05-20T05:06:10.318Z,95456.98
2019-05-20T05:08:41.889Z,95461.73
2019-05-20T05:11:13.391Z,95457.17
2019-05-20T05:13:45.359Z,95450.18
2019-05-20T05:16:16.840Z,95449.27
2019-05-20T05:18:48.361Z,95458.42
2019-05-20T05:21:19.982Z,95467.00
2019-05-20T05:23:59.156Z,95464.85
2019-05-20T05:26:24.825Z,95464.58
2019-05-20T05:28:56.429Z,95469.80
2019-05-20T05:31:27.929Z,95463.16
2019-05-20T05:33:59.767Z,95462.12
2019-05-20T05:36:32.480Z,95472.83
2019-05-20T05:39:05.443Z,95475.72
2019-05-20T05:41:36.909Z,95470.62
2019-05-20T05:44:08.467Z,95481.22
2019-05-20T05:46:40.020Z,95477.55
2019-05-20T05:49:11.536Z,95471.97
2019-05-20T05:51:43.024Z,95469.62
2019-05-20T05:54:14.639Z,95477.95
2019-05-20T05:56:46.203Z,95470.59
2019-05-20T05:59:18.505Z,95475.23
2019-05-20T06:01:50.104Z,95473.44
2019-05-20T06:04:21.872Z,95468.33
2019-05-20T06:06:53.391Z,95468.50
2019-05-20T06:09:24.925Z,95464.39
2019-05-20T06:11:56.636Z,95468.50
2019-05-20T06:14:28.126Z,95469.59
2019-05-20T06:16:59.668Z,95470.77
2019-05-20T06:19:31.195Z,95473.45
2019-05-20T06:22:03.011Z,95475.66
2019-05-20T06:24:34.765Z,95478.91
2019-05-20T06:27:06.636Z,95478.66
2019-05-20T06:29:38.164Z,95471.38
2019-05-20T06:32:10.065Z,95477.95
2019-05-20T06:34:42.997Z,95472.40
2019-05-20T06:37:16.735Z,95479.45
2019-05-20T06:39:51.113Z,95478.14
2019-05-20T06:42:22.085Z,95476.56
2019-05-20T06:44:57.196Z,95476.56
2019-05-20T06:47:28.743Z,95474.30
2019-05-20T06:50:00.636Z,95473.98
2019-05-20T06:52:35.792Z,95469.72
2019-05-20T06:55:06.474Z,95468.02
2019-05-20T06:57:37.940Z,95465.17
2019-05-20T07:00:10.811Z,95459.02
2019-05-20T07:02:42.780Z,95467.61
2019-05-20T07:05:14.617Z,95468.03
2019-05-20T07:07:46.034Z,95468.57
2019-05-20T07:10:17.629Z,95473.25
2019-05-20T07:12:49.446Z,95478.78
2019-05-20T07:15:20.988Z,95479.79
2019-05-20T07:17:52.922Z,95478.91
2019-05-20T07:20:24.616Z,95476.52
2019-05-20T07:22:57.060Z,95482.94
2019-05-20T07:25:29.713Z,95489.77
2019-05-20T07:28:01.419Z,95476.39
2019-05-20T07:30:33.153Z,95481.44
2019-05-20T07:33:05.120Z,95478.97
2019-05-20T07:35:36.741Z,95486.81
2019-05-20T07:38:08.375Z,95486.34
2019-05-20T07:40:39.951Z,95481.16
2019-05-20T07:43:11.464Z,95488.16
2019-05-20T07:45:44.012Z,95499.69
2019-05-20T07:48:16.319Z,95496.76
2019-05-20T07:50:50.084Z,95496.00
2019-05-20T07:53:22.780Z,95492.69
2019-05-20T07:56:08.677Z,95491.24
2019-05-20T07:58:44.926Z,95492.08
2019-05-20T08:01:17.345Z,95489.69
2019-05-20T08:03:49.001Z,95489.22
2019-05-20T08:06:20.951Z,95496.44
2019-05-20T08:08:52.591Z,95491.44
2019-05-20T08:11:24.095Z,95494.45
2019-05-20T08:13:55.814Z,95492.38
2019-05-20T08:16:27.538Z,95494.31
2019-05-20T08:18:59.139Z,95492.00
2019-05-20T08:21:30.797Z,95496.94
2019-05-20T08:24:02.608Z,95500.53
2019-05-20T08:26:34.277Z,95509.58
2019-05-20T08:29:06.090Z,95507.91
2019-05-20T08:31:38.177Z,95506.65
2019-05-20T08:34:09.877Z,95516.27
2019-05-20T08:36:42.154Z,95508.41
2019-05-20T08:39:13.679Z,95510.30
2019-05-20T08:41:45.253Z,95512.63
2019-05-20T08:44:18.120Z,95508.19
2019-05-20T08:46:50.378Z,95505.05
2019-05-20T08:49:22.683Z,95513.38
2019-05-20T08:51:54.615Z,95506.52
2019-05-20T08:54:26.320Z,95505.75
2019-05-20T08:56:57.804Z,95506.00
2019-05-20T08:59:29.355Z,95508.81
2019-05-20T09:02:00.862Z,95512.27
2019-05-20T09:04:32.372Z,95503.81
2019-05-20T09:07:04.153Z,95504.22
2019-05-20T09:09:36.087Z,95504.66
2019-05-20T09:12:07.969Z,95499.06
2019-05-20T09:14:40.658Z,95498.31
2019-05-20T09:17:12.458Z,95497.78
2019-05-20T09:19:46.843Z,95491.23
2019-05-20T09:22:19.346Z,95485.22
2019-05-20T09:24:51.560Z,95491.44
2019-05-20T09:27:23.214Z,95492.22
2019-05-20T09:29:54.904Z,95493.66
2019-05-20T09:32:27.807Z,95488.09
2019-05-20T09:35:00.409Z,95482.07
2019-05-20T09:37:31.970Z,95485.05
2019-05-20T09:40:03.623Z,95490.39
2019-05-20T09:42:40.619Z,95486.52
2019-05-20T09:45:10.760Z,95482.41
2019-05-20T09:47:42.332Z,95488.91
2019-05-20T09:50:14.245Z,95485.26
2019-05-20T09:52:46.244Z,95487.23
2019-05-20T09:55:18.249Z,95484.88
2019-05-20T09:57:50.344Z,95494.38
2019-05-20T10:00:22.129Z,95485.54
2019-05-20T10:02:53.709Z,95482.11
2019-05-20T10:05:25.194Z,95482.83
2019-05-20T10:07:56.987Z,95483.22
2019-05-20T10:10:28.524Z,95480.63
2019-05-20T10:13:00.159Z,95490.98
2019-05-20T10:15:31.679Z,95495.16
2019-05-20T10:18:03.208Z,95494.03
2019-05-20T10:20:34.681Z,95491.64
2019-05-20T10:23:07.362Z,95493.02
2019-05-20T10:25:39.667Z,95490.55
2019-05-20T10:28:11.155Z,95495.59
2019-05-20T10:30:42.984Z,95491.23
2019-05-20T10:33:14.904Z,95495.88
2019-05-20T10:35:46.483Z,95489.98
2019-05-20T10:38:18.087Z,95494.38
2019-05-20T10:40:49.649Z,95497.69
2019-05-20T10:43:21.148Z,95493.14
2019-05-20T10:45:52.661Z,95486.70
2019-05-20T10:48:24.748Z,95486.00
2019-05-20T10:50:56.378Z,95489.30
2019-05-20T10:53:28.530Z,95487.39
2019-05-20T10:56:01.210Z,95479.93
2019-05-20T10:58:33.222Z,95480.87
2019-05-20T11:01:04.804Z,95481.88
2019-05-20T11:03:37.442Z,95485.85
2019-05-20T11:06:09.272Z,95482.42
2019-05-20T11:08:40.783Z,95491.37
2019-05-20T11:11:14.355Z,95486.55
2019-05-20T11:13:45.706Z,95488.59
2019-05-20T11:16:17.231Z,95486.72
2019-05-20T11:18:48.717Z,95499.00
2019-05-20T11:21:21.528Z,95485.21
2019-05-20T11:23:53.028Z,95485.67
2019-05-20T11:26:24.622Z,95491.23
2019-05-20T11:28:56.169Z,95501.78
2019-05-20T11:31:27.744Z,95497.09
2019-05-20T11:33:59.247Z,95499.91
2019-05-20T11:36:31.826Z,95503.21
2019-05-20T11:39:06.997Z,95503.30
2019-05-20T11:41:52.627Z,95499.91
2019-05-20T11:44:12.053Z,95497.22
2019-05-20T11:46:43.808Z,95489.23
2019-05-20T11:49:16.005Z,95493.59
2019-05-20T11:51:48.943Z,95492.97
2019-05-20T11:54:21.838Z,95500.02
2019-05-20T11:56:53.319Z,95503.83
2019-05-20T11:59:24.984Z,95503.91
2019-05-20T12:01:56.607Z,95502.50
2019-05-20T12:04:28.117Z,95509.02
2019-05-20T12:06:59.655Z,95512.49
2019-05-20T12:09:47.827Z,95512.14
2019-05-20T12:12:04.737Z,95508.96
2019-05-20T12:14:36.611Z,95508.06
2019-05-20T12:17:08.836Z,95508.02
2019-05-20T12:19:40.693Z,95506.88
2019-05-20T12:22:12.546Z,95506.47
2019-05-20T12:24:44.028Z,95503.31
2019-05-20T12:27:15.580Z,95506.76
2019-05-20T12:29:47.056Z,95511.08
2019-05-20T12:32:18.663Z,95513.81
2019-05-20T12:34:50.751Z,95515.14
2019-05-20T12:37:22.235Z,95516.42
2019-05-20T12:40:06.503Z,95523.17
2019-05-20T12:42:27.692Z,95527.55
2019-05-20T12:44:59.965Z,95535.63
2019-05-20T12:47:31.770Z,95533.05
2019-05-20T12:50:03.282Z,95528.84
2019-05-20T12:52:34.935Z,95529.83
2019-05-20T12:55:09.766Z,95533.81
2019-05-20T12:57:41.345Z,95546.62
2019-05-20T13:00:14.924Z,95540.11
2019-05-20T13:02:46.395Z,95531.63
2019-05-20T13:05:18.276Z,95538.66
2019-05-20T13:07:50.055Z,95544.85
2019-05-20T13:10:29.738Z,95545.53
2019-05-20T13:12:55.349Z,95545.33
2019-05-20T13:15:26.900Z,95549.87
2019-05-20T13:17:58.339Z,95546.04
2019-05-20T13:20:29.896Z,95538.83
2019-05-20T13:23:01.861Z,95551.36
2019-05-20T13:25:33.853Z,95549.34
2019-05-20T13:28:05.655Z,95551.88
2019-05-20T13:30:37.236Z,95547.63
2019-05-20T13:33:08.720Z,95545.26
2019-05-20T13:35:40.238Z,95549.02
2019-05-20T13:38:11.744Z,95554.36
2019-05-20T13:40:47.242Z,95545.00
2019-05-20T13:43:17.468Z,95546.00
2019-05-20T13:45:48.987Z,95545.73
2019-05-20T13:48:20.552Z,95543.66
2019-05-20T13:50:52.172Z,95550.78
2019-05-20T13:53:23.696Z,95546.67
2019-05-20T13:55:55.305Z,95552.66
2019-05-20T13:58:26.843Z,95547.27
2019-05-20T14:00:58.381Z,95546.41
2019-05-20T14:03:30.285Z,95542.98
2019-05-20T14:06:01.786Z,95535.14
2019-05-20T14:08:33.413Z,95546.78
2019-05-20T14:11:05.328Z,95548.64
2019-05-20T14:13:37.905Z,95543.91
2019-05-20T14:16:09.950Z,95541.42
2019-05-20T14:18:41.780Z,95539.76
2019-05-20T14:21:13.659Z,95541.20
2019-05-20T14:23:45.229Z,95543.98
2019-05-20T14:26:16.958Z,95540.30
2019-05-20T14:28:48.482Z,95535.98
2019-05-20T14:31:19.994Z,95533.63
2019-05-20T14:33:51.508Z,95528.83
2019-05-20T14:36:38.442Z,95528.60
2019-05-20T14:38:56.761Z,95527.33
2019-05-20T14:41:28.298Z,95527.73
2019-05-20T14:43:59.826Z,95529.80
2019-05-20T14:46:31.365Z,95530.03
2019-05-20T14:49:03.187Z,95533.63
2019-05-20T14:51:34.774Z,95528.72
2019-05-20T14:54:06.577Z,95530.60
2019-05-20T14:56:38.741Z,95530.42
2019-05-20T14:59:10.221Z,95524.95
2019-05-20T15:01:42.092Z,95529.42
2019-05-20T15:04:14.026Z,95525.70
2019-05-20T15:06:45.538Z,95524.74
2019-05-20T15:09:17.052Z,95518.53
2019-05-20T15:11:48.492Z,95518.69
2019-05-20T15:14:19.992Z,95515.15
2019-05-20T15:16:51.529Z,95511.49
2019-05-20T15:19:23.111Z,95513.95
2019-05-20T15:21:54.666Z,95513.89
2019-05-20T15:24:26.452Z,95517.93
2019-05-20T15:26:58.148Z,95520.70
2019-05-20T15:29:29.712Z,95519.92
2019-05-20T15:32:01.474Z,95520.70
2019-05-20T15:34:34.266Z,95520.20
2019-05-20T15:37:06.238Z,95519.17
2019-05-20T15:39:37.771Z,95520.60
2019-05-20T15:42:09.354Z,95517.39
2019-05-20T15:44:40.988Z,95515.61
2019-05-20T15:47:12.496Z,95513.02
2019-05-20T15:49:44.011Z,95528.66
2019-05-20T15:52:15.515Z,95514.30
2019-05-20T15:54:47.010Z,95517.75
2019-05-20T15:57:18.669Z,95509.34
2019-05-20T15:59:50.188Z,95507.81
2019-05-20T16:02:22.152Z,95509.77
2019-05-20T16:04:53.688Z,95511.70
2019-05-20T16:07:25.570Z,95521.96
2019-05-20T16:09:57.048Z,95522.00
2019-05-20T16:12:28.716Z,95520.70
2019-05-20T16:15:00.307Z,95511.75
2019-05-20T16:17:32.075Z,95522.06
2019-05-20T16:20:06.861Z,95511.63
2019-05-20T16:22:37.129Z,95510.10
2019-05-20T16:25:09.438Z,95519.75
2019-05-20T16:27:41.199Z,95537.36
2019-05-20T16:30:13.785Z,95542.55
2019-05-20T16:32:45.617Z,95534.06
2019-05-20T16:35:17.565Z,95527.02
2019-05-20T16:37:49.406Z,95552.66
2019-05-20T16:40:21.079Z,95562.15
2019-05-20T16:42:52.629Z,95559.48
2019-05-20T16:45:24.892Z,95552.94
2019-05-20T16:47:56.410Z,95538.09
2019-05-20T16:50:28.157Z,95535.94
2019-05-20T16:52:59.865Z,95538.53
2019-05-20T16:55:31.803Z,95538.89
2019-05-20T16:58:03.318Z,95546.53
2019-05-20T17:00:35.343Z,95561.22
2019-05-20T17:03:06.910Z,95546.45
2019-05-20T17:05:38.884Z,95536.05
2019-05-20T17:08:10.487Z,95544.59
2019-05-20T17:10:42.029Z,95550.00
2019-05-20T17:13:13.641Z,95564.00
2019-05-20T17:15:45.175Z,95566.67
2019-05-20T17:18:16.702Z,95553.45
2019-05-20T17:20:48.618Z,95548.97
2019-05-20T17:23:20.112Z,95557.91
2019-05-20T17:25:51.638Z,95557.08
2019-05-20T17:28:23.208Z,95552.91
2019-05-20T17:30:54.705Z,95555.63
2019-05-20T17:33:26.551Z,95554.02
2019-05-20T17:35:58.125Z,95544.13
2019-05-20T17:38:29.679Z,95552.41
2019-05-20T17:41:02.299Z,95548.39
2019-05-20T17:43:33.778Z,95551.61
2019-05-20T17:46:06.017Z,95541.70
2019-05-20T17:48:37.839Z,95549.05
2019-05-20T17:51:09.501Z,95553.36
2019-05-20T17:53:41.051Z,95555.11
2019-05-20T17:56:12.507Z,95549.11
2019-05-20T17:58:44.069Z,95540.42
2019-05-20T18:01:16.273Z,95538.39
2019-05-20T18:03:48.141Z,95544.20
2019-05-20T18:06:19.867Z,95548.81
2019-05-20T18:08:54.004Z,95545.48
2019-05-20T18:11:25.495Z,95534.15
2019-05-20T18:13:57.410Z,95544.08
2019-05-20T18:16:29.590Z,95545.09
2019-05-20T18:19:01.963Z,95546.03
2019-05-20T18:21:33.537Z,95543.22
2019-05-20T18:24:05.131Z,95546.17
2019-05-20T18:26:37.709Z,95544.48
2019-05-20T18:29:09.323Z,95547.66
2019-05-20T18:31:40.984Z,95554.66
2019-05-20T18:34:12.563Z,95556.15
2019-05-20T18:36:44.043Z,95551.19
2019-05-20T18:39:15.797Z,95559.92
2019-05-20T18:41:47.443Z,95562.12
2019-05-20T18:44:19.017Z,95560.27
2019-05-20T18:46:50.507Z,95559.92
2019-05-20T18:49:22.301Z,95559.62
2019-05-20T18:51:53.844Z,95557.09
2019-05-20T18:54:26.263Z,95560.75
2019-05-20T18:56:57.760Z,95556.15
2019-05-20T18:59:30.398Z,95557.75
2019-05-20T19:02:05.462Z,95557.24
2019-05-20T19:04:35.110Z,95560.30
2019-05-20T19:07:06.608Z,95561.56
2019-05-20T19:09:38.254Z,95567.97
2019-05-20T19:12:10.429Z,95570.41
2019-05-20T19:14:42.445Z,95571.70
2019-05-20T19:17:13.974Z,95574.81
2019-05-20T19:19:45.423Z,95584.91
2019-05-20T19:22:17.005Z,95583.55
2019-05-20T19:24:48.492Z,95580.72
2019-05-20T19:27:19.915Z,95581.59
2019-05-20T19:29:51.458Z,95585.90
2019-05-20T19:32:23.024Z,95599.72
2019-05-20T19:34:54.860Z,95592.87
2019-05-20T19:37:26.335Z,95597.34
2019-05-20T19:39:58.063Z,95598.13
2019-05-20T19:42:29.623Z,95607.44
2019-05-20T19:45:01.078Z,95601.52
2019-05-20T19:47:33.226Z,95605.48
2019-05-20T19:50:05.043Z,95606.78
2019-05-20T19:52:36.605Z,95611.75
2019-05-20T19:55:08.822Z,95610.52
2019-05-20T19:57:40.709Z,95600.23
2019-05-20T20:00:12.751Z,95612.91
2019-05-20T20:02:44.810Z,95609.95
2019-05-20T20:05:16.502Z,95616.67
2019-05-20T20:07:48.403Z,95618.84
2019-05-20T20:10:20.322Z,95613.23
2019-05-20T20:12:52.039Z,95620.58
2019-05-20T20:15:23.682Z,95617.23
2019-05-20T20:17:55.203Z,95616.42
2019-05-20T20:20:26.750Z,95622.73
2019-05-20T20:22:58.288Z,95618.04
2019-05-20T20:25:30.130Z,95621.19
2019-05-20T20:28:01.930Z,95627.66
2019-05-20T20:30:33.587Z,95622.43
2019-05-20T20:33:05.468Z,95628.77
2019-05-20T20:35:38.396Z,95629.25
2019-05-20T20:38:10.431Z,95626.73
2019-05-20T20:40:42.031Z,95623.70
2019-05-20T20:43:13.844Z,95624.63
2019-05-20T20:45:46.011Z,95632.45
2019-05-20T20:48:17.553Z,95630.80
2019-05-20T20:50:49.396Z,95632.91
2019-05-20T20:53:20.890Z,95634.61
2019-05-20T20:55:52.676Z,95631.38
2019-05-20T20:58:24.125Z,95630.28
2019-05-20T21:00:56.633Z,95629.66
2019-05-20T21:03:28.499Z,95632.45
2019-05-20T21:06:00.617Z,95635.09
2019-05-20T21:08:33.709Z,95630.61
2019-05-20T21:11:05.300Z,95630.23
2019-05-20T21:13:37.607Z,95628.50
2019-05-20T21:16:09.528Z,95633.45
2019-05-20T21:18:41.447Z,95635.23
2019-05-20T21:21:13.269Z,95631.38
2019-05-20T21:23:44.753Z,95634.35
2019-05-20T21:26:16.530Z,95626.84
2019-05-20T21:28:47.960Z,95630.41
2019-05-20T21:31:19.471Z,95629.06
2019-05-20T21:33:50.902Z,95625.84
2019-05-20T21:36:22.458Z,95627.52
2019-05-20T21:38:53.899Z,95624.38
2019-05-20T21:41:25.319Z,95632.50
2019-05-20T21:43:57.209Z,95628.42
2019-05-20T21:46:28.766Z,95628.38
2019-05-20T21:49:00.249Z,95623.03
2019-05-20T21:51:31.778Z,95626.10
2019-05-20T21:54:03.198Z,95621.66
2019-05-20T21:56:34.708Z,95622.54
2019-05-20T21:59:06.310Z,95621.41
2019-05-20T22:01:38.416Z,95622.20
2019-05-20T22:04:09.947Z,95618.44
2019-05-20T22:06:41.474Z,95615.92
2019-05-20T22:09:12.887Z,95621.58
2019-05-20T22:11:44.451Z,95619.87
2019-05-20T22:14:15.998Z,95623.68
2019-05-20T22:16:47.867Z,95620.54
2019-05-20T22:19:19.481Z,95615.20
2019-05-20T22:21:57.094Z,95609.84
2019-05-20T22:24:29.020Z,95617.58
2019-05-20T22:27:00.693Z,95607.98
2019-05-20T22:29:32.164Z,95606.25
2019-05-20T22:32:04.046Z,95604.48
2019-05-20T22:34:35.825Z,95598.67
2019-05-20T22:37:07.420Z,95599.05
2019-05-20T22:39:39.044Z,95597.40
2019-05-20T22:42:10.547Z,95603.05
2019-05-20T22:44:42.276Z,95594.98
2019-05-20T22:47:13.892Z,95594.74
2019-05-20T22:49:45.346Z,95598.02
2019-05-20T22:52:17.125Z,95601.63
2019-05-20T22:54:49.108Z,95601.53
2019-05-20T22:57:20.657Z,95594.44
2019-05-20T22:59:52.247Z,95588.32
2019-05-20T23:02:23.799Z,95590.38
2019-05-20T23:04:55.326Z,95592.89
2019-05-20T23:07:27.187Z,95597.95
2019-05-20T23:09:58.739Z,95590.44
2019-05-20T23:12:31.366Z,95586.48
2019-05-20T23:15:03.121Z,95588.53
2019-05-20T23:17:35.120Z,95581.93
2019-05-20T23:20:07.972Z,95580.92
2019-05-20T23:22:39.833Z,95578.34
2019-05-20T23:25:11.438Z,95587.27
2019-05-20T23:27:43.819Z,95588.64
2019-05-20T23:30:15.551Z,95587.58
2019-05-20T23:32:47.055Z,95579.73
2019-05-20T23:35:18.880Z,95589.23
2019-05-20T23:37:50.788Z,95587.50
2019-05-20T23:40:22.556Z,95589.05
2019-05-20T23:42:55.117Z,95584.29
2019-05-20T23:45:26.961Z,95589.05
2019-05-20T23:47:58.782Z,95598.59
2019-05-20T23:50:30.404Z,95587.42
2019-05-20T23:53:01.932Z,95588.13
2019-05-20T23:55:33.412Z,95591.88
2019-05-20T23:58:04.934Z,95585.30
